createdAt,value
2022-07-26T00:00:21.087Z,1.15
2022-07-26T00:03:06.332Z,0.90
2022-07-26T00:05:52.164Z,1.30
2022-07-26T00:08:37.673Z,1.30
2022-07-26T00:11:23.781Z,1.30
2022-07-26T00:14:09.804Z,1.10
2022-07-26T00:16:55.348Z,1.20
2022-07-26T00:19:40.900Z,1.60
2022-07-26T00:22:35.505Z,1.63
2022-07-26T00:25:21.261Z,1.35
2022-07-26T00:28:06.923Z,1.20
2022-07-26T00:30:55.125Z,1.05
2022-07-26T00:33:40.713Z,1.20
2022-07-26T00:36:27.684Z,1.70
2022-07-26T00:39:13.295Z,2.17
2022-07-26T00:41:58.850Z,1.02
2022-07-26T00:44:46.108Z,1.10
2022-07-26T00:47:31.857Z,1.17
2022-07-26T00:50:19.961Z,1.00
2022-07-26T00:53:05.808Z,1.15
2022-07-26T00:55:51.196Z,1.10
2022-07-26T00:58:36.456Z,1.10
2022-07-26T01:01:22.043Z,1.27
2022-07-26T01:04:07.807Z,1.50
2022-07-26T01:06:53.559Z,1.45
2022-07-26T01:09:39.930Z,1.20
2022-07-26T01:12:25.600Z,2.08
2022-07-26T01:15:13.031Z,1.88
2022-07-26T01:17:59.156Z,1.48
2022-07-26T01:20:45.309Z,1.40
2022-07-26T01:23:31.544Z,1.63
2022-07-26T01:26:17.906Z,1.63
2022-07-26T01:29:05.477Z,2.03
2022-07-26T01:31:51.722Z,1.40
2022-07-26T01:34:37.607Z,1.08
2022-07-26T01:37:23.091Z,1.50
2022-07-26T01:40:10.319Z,1.58
2022-07-26T01:42:55.644Z,2.17
2022-07-26T01:45:42.849Z,1.60
2022-07-26T01:48:28.658Z,1.52
2022-07-26T01:51:15.912Z,1.60
2022-07-26T01:54:03.766Z,1.52
2022-07-26T01:56:49.349Z,1.98
2022-07-26T01:59:34.774Z,1.73
2022-07-26T02:02:20.261Z,1.55
2022-07-26T02:05:06.387Z,1.80
2022-07-26T02:07:51.825Z,2.10
2022-07-26T02:10:55.851Z,1.58
2022-07-26T02:13:42.342Z,1.75
2022-07-26T02:16:28.015Z,1.40
2022-07-26T02:19:13.519Z,2.08
2022-07-26T02:21:59.606Z,1.80
2022-07-26T02:24:45.910Z,1.48
2022-07-26T02:27:31.557Z,1.25
2022-07-26T02:30:16.971Z,1.58
2022-07-26T02:33:02.471Z,1.98
2022-07-26T02:35:48.380Z,1.75
2022-07-26T02:38:33.951Z,1.50
2022-07-26T02:41:19.340Z,1.98
2022-07-26T02:44:06.251Z,1.60
2022-07-26T02:46:53.164Z,1.40
2022-07-26T02:49:38.719Z,1.58
2022-07-26T02:52:24.394Z,2.08
2022-07-26T02:55:10.037Z,1.65
2022-07-26T02:57:56.073Z,1.80
2022-07-26T03:00:41.929Z,1.55
2022-07-26T03:03:27.475Z,1.70
2022-07-26T03:06:13.399Z,1.55
2022-07-26T03:08:59.781Z,2.03
2022-07-26T03:11:45.366Z,1.90
2022-07-26T03:14:30.846Z,2.05
2022-07-26T03:17:17.742Z,1.83
2022-07-26T03:20:04.453Z,1.50
2022-07-26T03:22:49.786Z,2.28
2022-07-26T03:25:37.688Z,2.33
2022-07-26T03:28:23.143Z,2.40
2022-07-26T03:31:08.964Z,1.65
2022-07-26T03:33:57.439Z,1.85
2022-07-26T03:36:46.623Z,2.85
2022-07-26T03:39:32.272Z,2.78
2022-07-26T03:42:18.009Z,2.00
2022-07-26T03:45:03.917Z,2.47
2022-07-26T03:47:50.215Z,1.70
2022-07-26T03:50:35.768Z,2.28
2022-07-26T03:53:21.407Z,2.20
2022-07-26T03:56:27.346Z,2.10
2022-07-26T03:59:12.684Z,2.08
2022-07-26T04:01:57.906Z,2.22
2022-07-26T04:04:43.310Z,2.38
2022-07-26T04:07:28.845Z,1.88
2022-07-26T04:10:15.834Z,2.20
2022-07-26T04:13:03.843Z,2.30
2022-07-26T04:15:49.649Z,2.28
2022-07-26T04:18:35.165Z,2.15
2022-07-26T04:21:21.013Z,2.63
2022-07-26T04:24:07.219Z,2.42
2022-07-26T04:26:53.318Z,2.63
2022-07-26T04:29:39.009Z,2.50
2022-07-26T04:32:24.795Z,2.17
2022-07-26T04:35:10.271Z,2.25
2022-07-26T04:37:55.789Z,2.10
2022-07-26T04:40:41.442Z,2.58
2022-07-26T04:43:27.439Z,2.40
2022-07-26T04:46:12.847Z,2.00
2022-07-26T04:48:58.410Z,2.05
2022-07-26T04:51:43.791Z,2.22
2022-07-26T04:54:29.141Z,2.10
2022-07-26T04:57:14.823Z,1.98
2022-07-26T05:00:20.348Z,2.67
2022-07-26T05:03:06.355Z,2.60
2022-07-26T05:05:52.150Z,2.20
2022-07-26T05:08:37.961Z,2.30
2022-07-26T05:11:24.019Z,2.20
2022-07-26T05:14:09.943Z,2.13
2022-07-26T05:16:55.705Z,1.92
2022-07-26T05:19:47.470Z,2.00
2022-07-26T05:22:35.701Z,2.15
2022-07-26T05:25:21.211Z,1.85
2022-07-26T05:28:06.727Z,2.47
2022-07-26T05:30:51.978Z,1.95
2022-07-26T05:33:37.555Z,2.05
2022-07-26T05:36:23.176Z,2.70
2022-07-26T05:39:11.704Z,2.08
2022-07-26T05:42:00.923Z,2.60
2022-07-26T05:44:46.387Z,2.20
2022-07-26T05:47:32.375Z,2.10
2022-07-26T05:50:17.979Z,2.15
2022-07-26T05:53:03.631Z,2.35
2022-07-26T05:55:48.975Z,2.47
2022-07-26T05:58:34.669Z,1.88
2022-07-26T06:01:19.954Z,2.20
2022-07-26T06:04:05.971Z,1.70
2022-07-26T06:06:52.958Z,2.13
2022-07-26T06:09:39.376Z,2.13
2022-07-26T06:12:24.727Z,2.17
2022-07-26T06:15:14.845Z,1.92
2022-07-26T06:18:01.562Z,2.30
2022-07-26T06:20:48.386Z,1.80
2022-07-26T06:23:35.246Z,1.98
2022-07-26T06:26:20.769Z,1.95
2022-07-26T06:29:06.268Z,2.88
2022-07-26T06:31:52.369Z,2.53
2022-07-26T06:34:37.876Z,2.70
2022-07-26T06:37:23.498Z,2.70
2022-07-26T06:40:10.622Z,2.90
2022-07-26T06:42:58.904Z,2.88
2022-07-26T06:45:46.900Z,2.55
2022-07-26T06:48:34.944Z,2.50
2022-07-26T06:51:22.083Z,3.08
2022-07-26T06:54:07.464Z,2.85
2022-07-26T06:56:53.531Z,3.03
2022-07-26T06:59:39.118Z,2.47
2022-07-26T07:02:24.665Z,2.67
2022-07-26T07:05:11.908Z,3.00
2022-07-26T07:07:57.591Z,4.53
2022-07-26T07:10:43.924Z,2.75
2022-07-26T07:13:30.316Z,3.33
2022-07-26T07:16:16.484Z,2.78
2022-07-26T07:19:03.143Z,3.33
2022-07-26T07:21:48.830Z,2.70
2022-07-26T07:24:34.673Z,2.45
2022-07-26T07:27:20.191Z,3.50
2022-07-26T07:30:08.334Z,3.10
2022-07-26T07:32:55.593Z,2.78
2022-07-26T07:35:42.230Z,2.55
2022-07-26T07:38:29.178Z,3.63
2022-07-26T07:41:15.843Z,2.38
2022-07-26T07:44:01.342Z,1.92
2022-07-26T07:46:47.369Z,2.47
2022-07-26T07:49:32.798Z,2.67
2022-07-26T07:52:18.430Z,2.03
2022-07-26T07:55:37.011Z,2.50
2022-07-26T07:58:09.595Z,2.25
2022-07-26T08:00:55.376Z,2.50
2022-07-26T08:03:40.877Z,2.92
2022-07-26T08:06:26.450Z,2.65
2022-07-26T08:09:13.377Z,2.80
2022-07-26T08:11:58.967Z,2.65
2022-07-26T08:14:45.942Z,2.65
2022-07-26T08:17:31.955Z,2.47
2022-07-26T08:20:20.759Z,2.25
2022-07-26T08:23:09.316Z,2.58
2022-07-26T08:25:58.626Z,3.22
2022-07-26T08:28:47.700Z,2.70
2022-07-26T08:31:33.544Z,3.20
2022-07-26T08:34:19.521Z,2.92
2022-07-26T08:37:16.916Z,2.60
2022-07-26T08:40:04.239Z,2.72
2022-07-26T08:42:58.984Z,2.88
2022-07-26T08:45:45.691Z,3.30
2022-07-26T08:48:34.734Z,4.13
2022-07-26T08:51:24.582Z,5.07
2022-07-26T08:54:12.445Z,5.40
2022-07-26T08:56:58.547Z,5.07
2022-07-26T08:59:44.912Z,6.40
2022-07-26T09:02:41.574Z,5.65
2022-07-26T09:05:35.027Z,5.20
2022-07-26T09:08:28.974Z,5.60
2022-07-26T09:11:33.427Z,5.30
2022-07-26T09:14:18.771Z,5.10
2022-07-26T09:17:06.054Z,5.18
2022-07-26T09:20:12.636Z,4.90
2022-07-26T09:22:58.086Z,4.97
2022-07-26T09:25:45.861Z,4.35
2022-07-26T09:28:31.954Z,4.85
2022-07-26T09:31:22.767Z,5.07
2022-07-26T09:34:08.678Z,4.10
2022-07-26T09:36:55.737Z,4.25
2022-07-26T09:39:55.077Z,4.13
2022-07-26T09:43:04.719Z,4.55
2022-07-26T09:46:04.042Z,3.92
2022-07-26T09:51:54.942Z,3.88
2022-07-26T09:54:41.460Z,3.40
2022-07-26T09:57:27.073Z,3.88
2022-07-26T10:00:12.878Z,3.90
2022-07-26T10:02:58.728Z,3.95
2022-07-26T10:05:44.372Z,4.43
2022-07-26T10:08:30.750Z,3.70
2022-07-26T10:11:18.950Z,4.00
2022-07-26T10:14:33.042Z,4.25
2022-07-26T10:17:34.888Z,4.20
2022-07-26T10:20:42.829Z,3.80
2022-07-26T10:23:40.043Z,3.78
2022-07-26T10:26:31.426Z,3.50
2022-07-26T10:29:19.593Z,3.70
2022-07-26T10:32:15.574Z,3.13
2022-07-26T10:35:00.831Z,3.80
2022-07-26T10:38:06.019Z,2.50
2022-07-26T10:41:00.027Z,3.17
2022-07-26T10:44:14.264Z,3.38
2022-07-26T10:47:01.844Z,2.90
2022-07-26T10:49:58.861Z,2.75
2022-07-26T10:52:58.881Z,2.60
2022-07-26T10:55:50.684Z,2.78
2022-07-26T10:58:43.294Z,2.63
2022-07-26T11:01:43.224Z,2.50
2022-07-26T11:04:28.808Z,2.72
2022-07-26T11:07:14.551Z,2.50
2022-07-26T11:10:01.201Z,2.45
2022-07-26T11:12:46.565Z,2.08
2022-07-26T11:15:32.806Z,2.47
2022-07-26T11:18:35.157Z,2.13
2022-07-26T11:21:20.458Z,2.60
2022-07-26T11:24:06.471Z,2.35
2022-07-26T11:26:52.457Z,2.25
2022-07-26T11:29:41.195Z,2.65
2022-07-26T11:32:27.287Z,2.15
2022-07-26T11:35:12.672Z,2.50
2022-07-26T11:38:11.242Z,2.92
2022-07-26T11:40:58.067Z,2.90
2022-07-26T11:43:43.542Z,2.95
2022-07-26T11:46:47.980Z,3.33
2022-07-26T11:50:00.538Z,3.30
2022-07-26T11:52:40.978Z,3.10
2022-07-26T11:55:30.848Z,2.95
2022-07-26T11:58:16.206Z,4.53
2022-07-26T12:01:01.975Z,3.15
2022-07-26T12:03:51.145Z,3.40
2022-07-26T12:06:39.202Z,2.75
2022-07-26T12:09:35.435Z,2.90
2022-07-26T12:12:29.468Z,3.20
2022-07-26T12:15:15.803Z,3.08
2022-07-26T12:18:01.480Z,2.60
2022-07-26T12:21:03.622Z,3.55
2022-07-26T12:26:37.583Z,3.17
2022-07-26T12:29:29.938Z,3.30
2022-07-26T12:32:23.970Z,4.18
2022-07-26T12:35:10.796Z,3.30
2022-07-26T12:37:57.297Z,3.15
2022-07-26T12:40:42.998Z,2.95
2022-07-26T12:43:39.573Z,2.85
2022-07-26T12:46:25.589Z,3.33
2022-07-26T12:49:11.638Z,3.47
2022-07-26T12:51:57.188Z,3.00
2022-07-26T12:54:46.686Z,3.38
2022-07-26T12:57:33.581Z,4.10
2022-07-26T13:00:22.612Z,3.25
2022-07-26T13:03:08.150Z,3.42
2022-07-26T13:05:53.793Z,5.30
2022-07-26T13:08:39.076Z,3.25
2022-07-26T13:11:25.226Z,3.40
2022-07-26T13:14:11.018Z,3.28
2022-07-26T13:16:59.402Z,2.90
2022-07-26T13:19:45.135Z,3.17
2022-07-26T13:22:30.726Z,3.35
2022-07-26T13:25:16.305Z,3.30
2022-07-26T13:28:02.373Z,3.35
2022-07-26T13:30:47.966Z,3.30
2022-07-26T13:33:33.620Z,3.20
2022-07-26T13:36:19.487Z,2.88
2022-07-26T13:39:05.819Z,3.30
2022-07-26T13:41:51.642Z,2.95
2022-07-26T13:44:37.264Z,3.67
2022-07-26T13:47:22.949Z,2.83
2022-07-26T13:50:09.522Z,2.75
2022-07-26T13:52:56.639Z,2.58
2022-07-26T13:55:42.473Z,2.60
2022-07-26T13:58:28.357Z,3.60
2022-07-26T14:01:13.877Z,2.90
2022-07-26T14:03:59.895Z,2.65
2022-07-26T14:06:45.585Z,2.80
2022-07-26T14:09:31.090Z,2.28
2022-07-26T14:12:16.758Z,2.42
2022-07-26T14:15:02.263Z,2.65
2022-07-26T14:17:47.902Z,3.28
2022-07-26T14:20:33.304Z,2.95
2022-07-26T14:23:18.600Z,2.60
2022-07-26T14:26:04.372Z,2.58
2022-07-26T14:28:50.245Z,2.30
2022-07-26T14:31:36.671Z,3.22
2022-07-26T14:34:22.249Z,2.78
2022-07-26T14:37:09.022Z,3.05
2022-07-26T14:40:17.804Z,2.40
2022-07-26T14:43:03.901Z,2.75
2022-07-26T14:45:50.733Z,2.47
2022-07-26T14:48:54.035Z,3.17
2022-07-26T14:51:40.240Z,2.53
2022-07-26T14:54:25.677Z,2.40
2022-07-26T14:57:11.181Z,2.75
2022-07-26T14:59:56.867Z,2.78
2022-07-26T15:02:44.673Z,2.60
2022-07-26T15:05:30.122Z,2.45
2022-07-26T15:08:15.729Z,2.85
2022-07-26T15:11:01.504Z,2.45
2022-07-26T15:13:47.235Z,3.10
2022-07-26T15:16:33.030Z,2.58
2022-07-26T15:19:23.644Z,2.70
2022-07-26T15:22:11.088Z,3.38
2022-07-26T15:24:56.867Z,2.67
2022-07-26T15:27:42.734Z,3.00
2022-07-26T15:30:28.424Z,2.60
2022-07-26T15:33:14.688Z,2.58
2022-07-26T15:36:03.977Z,2.83
2022-07-26T15:38:51.115Z,2.55
2022-07-26T15:41:37.065Z,2.33
2022-07-26T15:44:22.934Z,2.30
2022-07-26T15:47:11.729Z,2.13
2022-07-26T15:49:57.607Z,2.53
2022-07-26T15:52:45.965Z,2.97
2022-07-26T15:55:31.696Z,2.00
2022-07-26T15:58:17.447Z,2.58
2022-07-26T16:01:02.868Z,2.60
2022-07-26T16:03:48.309Z,2.55
2022-07-26T16:06:34.352Z,1.90
2022-07-26T16:09:19.959Z,2.40
2022-07-26T16:12:06.435Z,2.20
2022-07-26T16:14:52.140Z,2.58
2022-07-26T16:17:38.124Z,2.42
2022-07-26T16:20:23.883Z,2.38
2022-07-26T16:23:10.334Z,2.90
2022-07-26T16:25:56.685Z,2.50
2022-07-26T16:28:42.142Z,2.15
2022-07-26T16:31:28.514Z,2.35
2022-07-26T16:34:17.216Z,1.98
2022-07-26T16:37:04.164Z,2.20
2022-07-26T16:39:50.268Z,2.33
2022-07-26T16:42:36.442Z,2.15
2022-07-26T16:45:21.857Z,2.10
2022-07-26T16:48:07.596Z,2.42
2022-07-26T16:50:53.194Z,2.10
2022-07-26T16:53:38.671Z,2.08
2022-07-26T16:56:24.104Z,2.70
2022-07-26T16:59:10.622Z,2.47
2022-07-26T17:01:56.360Z,1.92
2022-07-26T17:04:50.207Z,1.90
2022-07-26T17:07:39.045Z,2.42
2022-07-26T17:10:24.803Z,2.63
2022-07-26T17:13:10.705Z,2.47
2022-07-26T17:15:56.211Z,2.40
2022-07-26T17:18:41.707Z,2.17
2022-07-26T17:21:27.171Z,2.10
2022-07-26T17:24:12.815Z,2.08
2022-07-26T17:26:58.576Z,1.73
2022-07-26T17:29:44.266Z,1.38
2022-07-26T17:32:30.138Z,1.65
2022-07-26T17:35:16.087Z,1.63
2022-07-26T17:38:01.809Z,2.03
2022-07-26T17:40:49.027Z,1.27
2022-07-26T17:43:36.512Z,1.25
2022-07-26T17:46:22.815Z,1.58
2022-07-26T17:49:08.984Z,1.85
2022-07-26T17:51:57.375Z,2.30
2022-07-26T17:54:42.804Z,1.70
2022-07-26T17:57:28.468Z,2.83
2022-07-26T18:00:14.634Z,2.83
2022-07-26T18:03:00.127Z,1.70
2022-07-26T18:05:45.914Z,1.70
2022-07-26T18:08:31.567Z,2.33
2022-07-26T18:11:17.210Z,2.53
2022-07-26T18:14:03.678Z,2.22
2022-07-26T18:16:54.383Z,2.10
2022-07-26T18:19:40.740Z,2.10
2022-07-26T18:22:27.283Z,2.50
2022-07-26T18:25:12.812Z,1.88
2022-07-26T18:28:01.994Z,2.38
2022-07-26T18:30:50.757Z,2.17
2022-07-26T18:33:36.228Z,3.13
2022-07-26T18:36:21.943Z,1.98
2022-07-26T18:39:07.694Z,4.45
2022-07-26T18:41:54.723Z,3.17
2022-07-26T18:44:40.300Z,2.20
2022-07-26T18:47:25.898Z,2.40
2022-07-26T18:50:12.571Z,2.08
2022-07-26T18:53:03.052Z,2.17
2022-07-26T18:55:49.554Z,2.60
2022-07-26T18:58:34.768Z,2.25
2022-07-26T19:01:21.292Z,2.00
2022-07-26T19:04:07.794Z,2.25
2022-07-26T19:06:53.519Z,2.55
2022-07-26T19:09:39.465Z,2.58
2022-07-26T19:12:25.997Z,2.03
2022-07-26T19:15:11.852Z,1.85
2022-07-26T19:17:57.740Z,1.77
2022-07-26T19:20:43.811Z,2.03
2022-07-26T19:23:29.458Z,2.15
2022-07-26T19:26:15.660Z,2.35
2022-07-26T19:29:00.918Z,2.65
2022-07-26T19:31:46.519Z,2.92
2022-07-26T19:34:32.144Z,2.72
2022-07-26T19:37:22.631Z,2.72
2022-07-26T19:40:08.406Z,1.45
2022-07-26T19:42:54.058Z,2.20
2022-07-26T19:45:39.971Z,2.05
2022-07-26T19:48:25.698Z,1.90
2022-07-26T19:51:11.367Z,1.67
2022-07-26T19:53:57.065Z,2.30
2022-07-26T19:56:43.002Z,2.25
2022-07-26T19:59:28.776Z,2.15
2022-07-26T20:02:14.956Z,2.38
2022-07-26T20:05:00.265Z,2.22
2022-07-26T20:07:47.864Z,2.40
2022-07-26T20:10:33.243Z,2.00
2022-07-26T20:13:18.920Z,2.47
2022-07-26T20:16:05.171Z,3.25
2022-07-26T20:18:51.163Z,2.13
2022-07-26T20:21:36.797Z,2.63
2022-07-26T20:24:22.413Z,2.42
2022-07-26T20:27:08.148Z,2.67
2022-07-26T20:29:57.506Z,2.97
2022-07-26T20:32:46.255Z,2.37
2022-07-26T20:35:31.813Z,2.50
2022-07-26T20:38:20.510Z,2.95
2022-07-26T20:41:06.371Z,2.63
2022-07-26T20:43:52.360Z,3.00
2022-07-26T20:46:40.281Z,2.40
2022-07-26T20:49:25.985Z,2.00
2022-07-26T20:52:11.758Z,2.33
2022-07-26T20:54:57.539Z,2.28
2022-07-26T20:57:43.028Z,2.80
2022-07-26T21:00:30.373Z,2.17
2022-07-26T21:03:17.029Z,2.63
2022-07-26T21:06:02.910Z,2.42
2022-07-26T21:08:48.729Z,3.53
2022-07-26T21:11:34.228Z,3.65
2022-07-26T21:14:19.752Z,4.28
2022-07-26T21:17:10.932Z,3.00
2022-07-26T21:19:57.198Z,2.65
2022-07-26T21:22:42.627Z,2.30
2022-07-26T21:25:28.090Z,3.17
2022-07-26T21:28:13.664Z,2.83
2022-07-26T21:30:59.223Z,2.88
2022-07-26T21:33:45.352Z,3.20
2022-07-26T21:36:31.472Z,2.95
2022-07-26T21:39:18.014Z,4.70
2022-07-26T21:42:04.522Z,3.70
2022-07-26T21:44:49.963Z,3.72
2022-07-26T21:47:35.488Z,3.47
2022-07-26T21:50:21.955Z,3.22
2022-07-26T21:53:07.639Z,3.15
2022-07-26T21:55:53.213Z,3.67
2022-07-26T21:58:38.676Z,3.20
2022-07-26T22:01:24.410Z,3.60
2022-07-26T22:04:10.229Z,3.38
2022-07-26T22:06:55.754Z,2.95
2022-07-26T22:09:40.991Z,3.08
2022-07-26T22:12:26.441Z,3.42
2022-07-26T22:15:11.941Z,3.30
2022-07-26T22:18:00.085Z,3.47
2022-07-26T22:20:47.588Z,3.70
2022-07-26T22:23:33.485Z,3.00
2022-07-26T22:26:21.186Z,3.47
2022-07-26T22:29:09.027Z,2.70
2022-07-26T22:31:55.715Z,2.55
2022-07-26T22:34:41.992Z,3.08
2022-07-26T22:37:27.587Z,2.50
2022-07-26T22:40:13.519Z,2.25
2022-07-26T22:42:59.417Z,2.30
2022-07-26T22:45:45.039Z,2.67
2022-07-26T22:48:30.636Z,1.98
2022-07-26T22:51:16.444Z,1.83
2022-07-26T22:54:02.302Z,2.10
2022-07-26T22:56:49.080Z,1.98
2022-07-26T22:59:34.578Z,1.75
2022-07-26T23:02:19.930Z,2.50
2022-07-26T23:05:06.052Z,2.30
2022-07-26T23:07:52.948Z,2.53
2022-07-26T23:10:39.257Z,2.05
2022-07-26T23:13:24.815Z,2.38
2022-07-26T23:16:10.531Z,2.17
2022-07-26T23:18:55.913Z,2.60
2022-07-26T23:21:41.578Z,2.35
2022-07-26T23:24:27.069Z,2.03
2022-07-26T23:27:15.513Z,2.42
2022-07-26T23:30:05.748Z,2.22
2022-07-26T23:32:51.258Z,1.95
2022-07-26T23:35:36.926Z,2.15
2022-07-26T23:38:22.309Z,1.90
2022-07-26T23:41:08.268Z,2.13
2022-07-26T23:43:54.617Z,2.63
2022-07-26T23:46:40.523Z,1.65
2022-07-26T23:49:26.407Z,1.90
2022-07-26T23:52:11.870Z,1.70
2022-07-26T23:54:57.392Z,1.83
2022-07-26T23:57:43.058Z,1.90
